createdAt,value
2023-03-27T00:01:25.667Z,4.73
2023-03-27T00:03:54.057Z,7.03
2023-03-27T00:06:25.394Z,8.57
2023-03-27T00:08:53.440Z,6.43
2023-03-27T00:11:22.253Z,5.70
2023-03-27T00:13:54.786Z,6.87
2023-03-27T00:16:27.656Z,5.10
2023-03-27T00:18:56.668Z,6.47
2023-03-27T00:22:30.114Z,6.63
2023-03-27T00:24:58.072Z,5.67
2023-03-27T00:28:39.044Z,7.13
2023-03-27T00:32:24.223Z,3.80
2023-03-27T00:34:52.411Z,4.93
2023-03-27T00:37:19.996Z,3.70
2023-03-27T00:39:50.182Z,6.77
2023-03-27T00:42:22.735Z,6.13
2023-03-27T00:44:51.795Z,8.83
2023-03-27T00:47:31.631Z,6.67
2023-03-27T00:50:04.094Z,3.60
2023-03-27T00:54:30.200Z,7.67
2023-03-27T00:57:02.921Z,4.47
2023-03-27T00:59:34.783Z,5.50
2023-03-27T01:02:04.370Z,4.40
2023-03-27T01:04:33.566Z,4.37
2023-03-27T01:07:04.147Z,7.27
2023-03-27T01:09:34.621Z,4.00
2023-03-27T01:12:12.557Z,4.03
2023-03-27T01:14:51.798Z,6.33
2023-03-27T01:17:34.747Z,4.77
2023-03-27T01:20:30.443Z,8.50
2023-03-27T01:23:35.855Z,5.17
2023-03-27T01:26:47.921Z,5.27
2023-03-27T01:29:25.563Z,9.03
2023-03-27T01:35:04.477Z,7.17
2023-03-27T01:37:43.348Z,4.40
2023-03-27T01:40:18.274Z,4.80
2023-03-27T01:42:49.354Z,6.53
2023-03-27T01:45:21.513Z,5.83
2023-03-27T01:47:55.349Z,7.63
2023-03-27T01:50:29.412Z,7.30
2023-03-27T01:53:01.426Z,6.33
2023-03-27T01:55:34.520Z,5.67
2023-03-27T01:58:08.172Z,6.70
2023-03-27T02:00:51.390Z,7.87
2023-03-27T02:03:23.803Z,7.00
2023-03-27T02:05:57.136Z,4.83
2023-03-27T02:08:31.224Z,6.13
2023-03-27T02:12:54.143Z,6.83
2023-03-27T02:15:26.240Z,6.13
2023-03-27T02:18:05.111Z,6.43
2023-03-27T02:20:34.255Z,7.77
2023-03-27T02:23:02.602Z,9.03
2023-03-27T02:25:32.793Z,7.67
2023-03-27T02:30:01.218Z,8.07
2023-03-27T02:35:23.186Z,8.07
2023-03-27T02:37:59.960Z,6.90
2023-03-27T02:40:39.883Z,5.10
2023-03-27T02:43:11.751Z,8.07
2023-03-27T02:45:47.467Z,5.07
2023-03-27T02:48:22.295Z,7.87
2023-03-27T02:54:16.227Z,10.77
2023-03-27T02:56:48.873Z,5.93
2023-03-27T03:04:18.285Z,3.13
2023-03-27T03:06:46.933Z,9.20
2023-03-27T03:09:15.505Z,6.87
2023-03-27T03:11:48.843Z,4.43
2023-03-27T03:18:20.256Z,7.17
2023-03-27T03:21:11.026Z,5.47
2023-03-27T03:23:39.401Z,5.83
2023-03-27T03:26:08.723Z,8.00
2023-03-27T03:28:36.681Z,5.73
2023-03-27T03:31:05.704Z,9.00
2023-03-27T03:33:34.437Z,7.23
2023-03-27T03:36:04.202Z,9.47
2023-03-27T03:38:37.790Z,7.47
2023-03-27T03:41:06.878Z,9.47
2023-03-27T03:43:35.842Z,7.17
2023-03-27T03:46:05.621Z,5.87
2023-03-27T03:48:33.606Z,7.73
2023-03-27T03:51:01.234Z,10.77
2023-03-27T03:53:29.131Z,9.50
2023-03-27T03:55:58.855Z,5.90
2023-03-27T03:58:34.099Z,9.07
2023-03-27T04:01:03.286Z,9.20
2023-03-27T04:03:32.794Z,4.90
2023-03-27T04:06:01.812Z,4.33
2023-03-27T04:11:41.064Z,6.07
2023-03-27T04:14:09.290Z,7.00
2023-03-27T04:16:37.547Z,9.60
2023-03-27T04:20:06.975Z,9.73
2023-03-27T04:22:38.130Z,11.90
2023-03-27T04:25:07.229Z,8.20
2023-03-27T04:28:30.436Z,5.93
2023-03-27T04:30:58.760Z,8.67
2023-03-27T04:33:30.644Z,7.93
2023-03-27T04:36:07.250Z,6.60
2023-03-27T04:38:36.976Z,9.67
2023-03-27T04:41:05.378Z,7.87
2023-03-27T04:43:36.986Z,8.30
2023-03-27T04:46:32.272Z,12.23
2023-03-27T04:49:01.179Z,6.20
2023-03-27T04:51:32.520Z,9.00
2023-03-27T04:54:00.327Z,7.27
2023-03-27T04:56:28.372Z,9.30
2023-03-27T04:58:56.530Z,6.70
2023-03-27T05:01:25.305Z,7.60
2023-03-27T05:03:54.841Z,4.73
2023-03-27T05:06:23.915Z,7.50
2023-03-27T05:08:52.547Z,12.20
2023-03-27T05:11:20.202Z,7.00
2023-03-27T05:13:47.965Z,9.03
2023-03-27T05:16:17.589Z,5.53
2023-03-27T05:19:38.469Z,7.53
2023-03-27T05:22:06.311Z,6.00
2023-03-27T05:24:34.393Z,12.87
2023-03-27T05:27:02.219Z,7.80
2023-03-27T05:29:30.194Z,8.10
2023-03-27T05:32:14.714Z,7.93
2023-03-27T05:34:44.393Z,9.23
2023-03-27T05:37:13.062Z,11.00
2023-03-27T05:39:41.362Z,14.87
2023-03-27T05:42:09.243Z,7.30
2023-03-27T05:44:36.949Z,8.27
2023-03-27T05:47:04.732Z,8.47
2023-03-27T05:49:34.084Z,6.53
2023-03-27T05:52:03.757Z,7.97
2023-03-27T05:54:31.967Z,7.63
2023-03-27T05:56:59.909Z,8.70
2023-03-27T05:59:27.745Z,7.03
2023-03-27T06:01:55.601Z,4.43
2023-03-27T06:04:24.001Z,6.53
2023-03-27T06:06:52.722Z,7.77
2023-03-27T06:09:21.943Z,7.73
2023-03-27T06:11:50.938Z,5.87
2023-03-27T06:14:18.675Z,7.37
2023-03-27T06:16:46.764Z,9.17
2023-03-27T06:19:14.841Z,12.30
2023-03-27T06:21:42.809Z,13.70
2023-03-27T06:24:10.902Z,8.63
2023-03-27T06:26:41.441Z,10.33
2023-03-27T06:29:10.779Z,14.87
2023-03-27T06:31:39.745Z,9.00
2023-03-27T06:34:08.315Z,6.70
2023-03-27T06:36:36.354Z,9.00
2023-03-27T06:39:05.464Z,10.97
2023-03-27T06:41:33.236Z,8.63
2023-03-27T06:44:02.880Z,15.87
2023-03-27T06:46:42.743Z,5.87
2023-03-27T06:49:13.119Z,8.00
2023-03-27T06:51:43.031Z,10.07
2023-03-27T06:54:12.430Z,11.73
2023-03-27T06:56:40.167Z,9.37
2023-03-27T06:59:10.810Z,9.30
2023-03-27T07:01:39.606Z,8.20
2023-03-27T07:04:07.927Z,5.07
2023-03-27T07:06:36.568Z,8.77
2023-03-27T07:09:05.677Z,8.43
2023-03-27T07:11:34.266Z,7.70
2023-03-27T07:14:02.343Z,6.00
2023-03-27T07:16:32.128Z,5.33
2023-03-27T07:19:02.221Z,4.90
2023-03-27T07:21:31.018Z,3.80
2023-03-27T07:23:58.859Z,6.43
2023-03-27T07:26:27.720Z,6.80
2023-03-27T07:28:57.679Z,5.77
2023-03-27T07:31:41.825Z,6.53
2023-03-27T07:34:16.977Z,6.73
2023-03-27T07:36:45.823Z,11.90
2023-03-27T07:39:15.507Z,6.13
2023-03-27T07:41:43.141Z,5.97
2023-03-27T07:44:11.510Z,5.77
2023-03-27T07:46:39.661Z,4.83
2023-03-27T07:49:08.736Z,6.03
2023-03-27T07:51:38.856Z,5.10
2023-03-27T07:54:07.170Z,5.83
2023-03-27T07:56:36.042Z,7.67
2023-03-27T07:59:07.186Z,4.40
2023-03-27T08:01:36.060Z,3.93
2023-03-27T08:04:03.902Z,4.10
2023-03-27T08:06:32.122Z,3.00
2023-03-27T08:09:02.812Z,3.33
2023-03-27T08:11:31.391Z,4.87
2023-03-27T08:13:59.664Z,6.30
2023-03-27T08:16:29.792Z,3.93
2023-03-27T08:19:00.253Z,6.57
2023-03-27T08:21:31.874Z,4.83
2023-03-27T08:24:03.012Z,3.60
2023-03-27T08:26:30.812Z,3.37
2023-03-27T08:29:00.769Z,3.10
2023-03-27T08:31:30.888Z,4.37
2023-03-27T08:34:00.209Z,7.43
2023-03-27T08:36:28.677Z,4.27
2023-03-27T08:38:56.510Z,3.90
2023-03-27T08:41:30.746Z,4.77
2023-03-27T08:44:01.625Z,6.80
2023-03-27T08:46:35.138Z,5.90
2023-03-27T08:49:10.009Z,5.63
2023-03-27T08:51:43.511Z,2.77
2023-03-27T08:54:18.214Z,4.07
2023-03-27T08:56:49.367Z,4.93
2023-03-27T08:59:20.446Z,3.27
2023-03-27T09:01:57.617Z,3.10
2023-03-27T09:04:37.519Z,4.20
2023-03-27T09:07:10.317Z,2.83
2023-03-27T09:09:47.817Z,3.93
2023-03-27T09:12:33.334Z,5.87
2023-03-27T09:15:10.195Z,4.57
2023-03-27T09:17:45.356Z,7.30
2023-03-27T09:20:20.248Z,4.33
2023-03-27T09:22:53.688Z,3.13
2023-03-27T09:25:25.644Z,5.67
2023-03-27T09:27:55.248Z,2.57
2023-03-27T09:30:26.975Z,2.07
2023-03-27T09:32:58.210Z,3.77
2023-03-27T09:35:27.850Z,4.00
2023-03-27T09:38:02.393Z,2.10
2023-03-27T09:40:35.847Z,3.27
2023-03-27T09:43:11.710Z,2.17
2023-03-27T09:45:41.839Z,3.53
2023-03-27T09:48:16.647Z,2.30
2023-03-27T09:50:47.113Z,1.80
2023-03-27T09:53:17.061Z,2.07
2023-03-27T09:55:55.151Z,1.90
2023-03-27T09:58:32.246Z,2.50
2023-03-27T10:01:15.706Z,4.63
2023-03-27T10:03:52.544Z,3.73
2023-03-27T10:06:31.872Z,5.17
2023-03-27T10:09:01.298Z,2.53
2023-03-27T10:11:32.770Z,3.20
2023-03-27T10:14:10.933Z,2.57
2023-03-27T10:16:42.329Z,3.23
2023-03-27T10:19:23.857Z,3.53
2023-03-27T10:21:52.626Z,2.47
2023-03-27T10:24:27.214Z,2.00
2023-03-27T10:26:55.916Z,2.77
2023-03-27T10:29:29.974Z,3.00
2023-03-27T10:32:00.460Z,3.30
2023-03-27T10:34:36.536Z,2.00
2023-03-27T10:37:20.775Z,2.60
2023-03-27T10:39:48.896Z,3.57
2023-03-27T10:42:17.932Z,11.47
2023-03-27T10:44:49.469Z,3.23
2023-03-27T10:47:20.409Z,2.60
2023-03-27T10:49:53.857Z,7.50
2023-03-27T10:52:25.173Z,9.33
2023-03-27T10:55:12.937Z,7.40
2023-03-27T10:57:44.472Z,2.90
2023-03-27T11:03:13.833Z,2.57
2023-03-27T11:03:47.562Z,3.57
2023-03-27T11:05:45.323Z,1.90
2023-03-27T11:08:19.987Z,12.43
2023-03-27T11:10:49.731Z,2.93
2023-03-27T11:13:23.359Z,3.77
2023-03-27T11:15:56.859Z,2.10
2023-03-27T11:18:29.202Z,1.83
2023-03-27T11:21:02.731Z,2.83
2023-03-27T11:23:35.242Z,2.00
2023-03-27T11:26:06.887Z,3.27
2023-03-27T11:28:44.560Z,2.20
2023-03-27T11:31:21.280Z,3.90
2023-03-27T11:33:53.527Z,2.03
2023-03-27T11:36:34.811Z,5.43
2023-03-27T11:39:14.781Z,4.43
2023-03-27T11:41:42.795Z,2.30
2023-03-27T11:44:11.212Z,1.87
2023-03-27T11:47:04.016Z,3.57
2023-03-27T11:49:56.407Z,3.40
2023-03-27T11:52:36.566Z,3.13
2023-03-27T11:55:17.986Z,2.63
2023-03-27T11:58:00.411Z,1.33
2023-03-27T12:00:34.560Z,2.40
2023-03-27T12:03:37.512Z,15.20
2023-03-27T12:06:15.822Z,18.60
2023-03-27T12:09:17.243Z,24.13
2023-03-27T12:11:51.825Z,5.87
2023-03-27T12:14:41.005Z,2.80
2023-03-27T12:17:36.797Z,2.53
2023-03-27T12:20:29.026Z,9.47
2023-03-27T12:23:01.747Z,4.00
2023-03-27T12:25:41.167Z,2.60
2023-03-27T12:28:23.039Z,2.87
2023-03-27T12:30:59.887Z,2.33
2023-03-27T12:33:38.874Z,2.17
2023-03-27T12:36:14.251Z,10.67
2023-03-27T12:38:44.108Z,5.37
2023-03-27T12:41:24.349Z,3.93
2023-03-27T12:43:56.697Z,2.30
2023-03-27T12:46:37.472Z,4.00
2023-03-27T12:49:48.542Z,1.33
2023-03-27T12:52:19.384Z,2.27
2023-03-27T12:55:06.901Z,2.30
2023-03-27T12:57:44.357Z,2.37
2023-03-27T13:00:21.852Z,6.20
2023-03-27T13:03:12.270Z,3.10
2023-03-27T13:06:04.376Z,3.40
2023-03-27T13:08:54.104Z,7.17
2023-03-27T13:11:36.785Z,2.63
2023-03-27T13:14:27.653Z,2.77
2023-03-27T13:17:12.122Z,1.60
2023-03-27T13:19:50.431Z,2.60
2023-03-27T13:22:39.867Z,5.93
2023-03-27T13:25:27.956Z,2.00
2023-03-27T13:28:17.981Z,2.63
2023-03-27T13:30:48.471Z,2.37
2023-03-27T13:33:18.813Z,1.53
2023-03-27T13:36:11.669Z,3.33
2023-03-27T13:39:07.304Z,0.80
2023-03-27T13:41:58.490Z,3.67
2023-03-27T13:44:38.315Z,3.30
2023-03-27T13:47:23.777Z,1.80
2023-03-27T13:50:14.590Z,3.13
2023-03-27T13:53:14.144Z,0.80
2023-03-27T13:55:57.428Z,1.50
2023-03-27T13:58:45.686Z,2.27
2023-03-27T14:01:25.789Z,3.73
2023-03-27T14:04:19.159Z,42.20
2023-03-27T14:07:09.144Z,10.03
2023-03-27T14:09:53.700Z,2.73
2023-03-27T14:12:31.149Z,2.27
2023-03-27T14:15:25.109Z,1.33
2023-03-27T14:18:08.797Z,1.10
2023-03-27T14:20:42.504Z,2.70
2023-03-27T14:23:19.180Z,1.43
2023-03-27T14:25:54.843Z,0.90
2023-03-27T14:28:32.466Z,4.17
2023-03-27T14:31:08.593Z,3.07
2023-03-27T14:33:39.802Z,1.93
2023-03-27T14:36:08.398Z,1.67
2023-03-27T14:38:37.552Z,15.40
2023-03-27T14:41:08.025Z,6.43
2023-03-27T14:43:36.199Z,3.07
2023-03-27T14:46:07.755Z,4.73
2023-03-27T14:48:38.024Z,1.30
2023-03-27T14:51:10.890Z,2.53
2023-03-27T14:53:44.789Z,3.67
2023-03-27T14:56:23.581Z,12.33
2023-03-27T14:58:54.233Z,5.17
2023-03-27T15:01:23.813Z,4.73
2023-03-27T15:03:52.999Z,6.77
2023-03-27T15:06:26.593Z,10.30
2023-03-27T15:08:59.109Z,9.80
2023-03-27T15:11:33.423Z,11.47
2023-03-27T15:14:01.477Z,1.53
2023-03-27T15:16:34.683Z,4.57
2023-03-27T15:19:09.885Z,3.70
2023-03-27T15:21:46.666Z,6.87
2023-03-27T15:24:18.250Z,1.87
2023-03-27T15:26:50.720Z,1.83
2023-03-27T15:29:29.059Z,1.93
2023-03-27T15:32:02.749Z,2.97
2023-03-27T15:34:38.031Z,7.33
2023-03-27T15:37:11.201Z,3.13
2023-03-27T15:39:59.003Z,2.67
2023-03-27T15:42:33.942Z,7.10
2023-03-27T15:45:05.176Z,3.57
2023-03-27T15:47:34.583Z,14.30
2023-03-27T15:50:19.667Z,13.37
2023-03-27T15:52:49.889Z,4.63
2023-03-27T15:55:34.809Z,2.13
2023-03-27T15:58:16.113Z,1.67
2023-03-27T16:00:47.560Z,3.07
2023-03-27T16:03:21.209Z,3.10
2023-03-27T16:05:50.239Z,2.40
2023-03-27T16:08:29.843Z,2.10
2023-03-27T16:10:58.467Z,5.30
2023-03-27T16:13:29.407Z,2.43
2023-03-27T16:15:59.768Z,1.97
2023-03-27T16:18:33.022Z,2.67
2023-03-27T16:21:09.036Z,2.20
2023-03-27T16:23:38.259Z,2.37
2023-03-27T16:26:08.292Z,4.00
2023-03-27T16:28:36.535Z,2.07
2023-03-27T16:31:12.031Z,3.10
2023-03-27T16:33:43.351Z,3.90
2023-03-27T16:36:13.405Z,137.73
2023-03-27T16:38:42.774Z,1999.90
2023-03-27T16:41:15.596Z,1999.90
2023-03-27T16:43:44.357Z,1999.90
2023-03-27T16:46:18.212Z,1999.90
2023-03-27T16:48:47.487Z,1999.90
2023-03-27T16:51:16.406Z,1999.90
2023-03-27T16:53:45.221Z,1999.90
2023-03-27T16:56:13.427Z,24.03
2023-03-27T16:58:42.425Z,1999.90
2023-03-27T17:01:10.807Z,2.90
2023-03-27T17:03:38.491Z,4.03
2023-03-27T17:06:11.698Z,2.77
2023-03-27T17:08:39.902Z,2.20
2023-03-27T17:11:10.036Z,1.90
2023-03-27T17:13:40.214Z,3.77
2023-03-27T17:16:10.126Z,2.80
2023-03-27T17:18:38.040Z,4.90
2023-03-27T17:21:07.801Z,3.00
2023-03-27T17:23:37.037Z,1.47
2023-03-27T17:26:09.237Z,2.43
2023-03-27T17:28:39.900Z,2.17
2023-03-27T17:31:07.637Z,2.23
2023-03-27T17:33:36.761Z,4.80
2023-03-27T17:36:10.613Z,2.27
2023-03-27T17:38:40.115Z,3.07
2023-03-27T17:41:09.080Z,2.00
2023-03-27T17:43:37.395Z,5.40
2023-03-27T17:46:05.669Z,4.30
2023-03-27T17:48:34.117Z,3.47
2023-03-27T17:51:09.016Z,3.40
2023-03-27T17:53:40.173Z,3.40
2023-03-27T17:56:09.417Z,4.57
2023-03-27T17:58:37.308Z,4.60
2023-03-27T18:01:16.457Z,4.97
2023-03-27T18:03:44.780Z,6.57
2023-03-27T18:06:13.267Z,4.20
2023-03-27T18:08:42.310Z,6.13
2023-03-27T18:11:12.643Z,4.60
2023-03-27T18:13:41.460Z,3.97
2023-03-27T18:16:11.225Z,4.60
2023-03-27T18:18:40.058Z,3.33
2023-03-27T18:21:08.418Z,1.90
2023-03-27T18:23:38.399Z,2.60
2023-03-27T18:26:16.588Z,3.67
2023-03-27T18:28:44.426Z,4.77
2023-03-27T18:31:13.259Z,2.93
2023-03-27T18:33:41.259Z,3.50
2023-03-27T18:36:11.429Z,3.37
2023-03-27T18:38:42.201Z,4.50
2023-03-27T18:41:10.681Z,2.50
2023-03-27T18:43:41.898Z,3.90
2023-03-27T18:46:10.767Z,6.07
2023-03-27T18:48:40.068Z,5.53
2023-03-27T18:51:07.910Z,6.03
2023-03-27T18:53:36.150Z,8.37
2023-03-27T18:56:04.057Z,4.73
2023-03-27T18:58:32.361Z,7.83
2023-03-27T19:01:02.037Z,3.50
2023-03-27T19:03:35.586Z,2.47
2023-03-27T19:06:05.626Z,4.30
2023-03-27T19:08:34.417Z,5.70
2023-03-27T19:11:02.120Z,4.43
2023-03-27T19:13:29.900Z,5.10
2023-03-27T19:15:58.983Z,5.00
2023-03-27T19:18:30.213Z,3.50
2023-03-27T19:20:59.817Z,4.27
2023-03-27T19:23:28.402Z,5.77
2023-03-27T19:25:56.223Z,4.37
2023-03-27T19:28:24.721Z,10.10
2023-03-27T19:30:54.169Z,4.30
2023-03-27T19:33:22.316Z,7.10
2023-03-27T19:35:55.050Z,9.53
2023-03-27T19:38:23.089Z,5.57
2023-03-27T19:40:51.166Z,4.97
2023-03-27T19:43:21.445Z,7.27
2023-03-27T19:46:08.193Z,4.50
2023-03-27T19:48:43.156Z,6.03
2023-03-27T19:51:12.575Z,5.63
2023-03-27T19:53:40.502Z,6.43
2023-03-27T19:56:08.365Z,7.20
2023-03-27T19:58:36.341Z,3.37
2023-03-27T20:01:04.930Z,4.53
2023-03-27T20:03:33.295Z,1.90
2023-03-27T20:06:06.857Z,4.10
2023-03-27T20:08:38.730Z,5.30
2023-03-27T20:11:07.882Z,2.67
2023-03-27T20:13:48.903Z,3.30
2023-03-27T20:16:23.690Z,3.33
2023-03-27T20:19:03.916Z,1.97
2023-03-27T20:21:33.696Z,3.70
2023-03-27T20:24:03.222Z,2.80
2023-03-27T20:26:39.006Z,2.87
2023-03-27T20:29:07.843Z,5.73
2023-03-27T20:31:35.731Z,3.97
2023-03-27T20:34:04.221Z,4.97
2023-03-27T20:36:33.378Z,6.00
2023-03-27T20:39:06.700Z,3.80
2023-03-27T20:41:38.887Z,5.27
2023-03-27T20:44:16.349Z,4.67
2023-03-27T20:46:47.821Z,6.17
2023-03-27T20:49:37.465Z,5.87
2023-03-27T20:52:08.584Z,4.63
2023-03-27T20:54:39.559Z,6.53
2023-03-27T20:57:08.020Z,6.53
2023-03-27T20:59:35.968Z,9.33
2023-03-27T21:02:04.146Z,8.63
2023-03-27T21:04:32.425Z,6.50
2023-03-27T21:07:00.793Z,9.47
2023-03-27T21:09:28.882Z,5.97
2023-03-27T21:11:57.945Z,4.57
2023-03-27T21:14:25.970Z,6.90
2023-03-27T21:16:53.653Z,5.60
2023-03-27T21:19:21.596Z,7.57
2023-03-27T21:21:49.401Z,10.60
2023-03-27T21:24:17.245Z,8.20
2023-03-27T21:26:45.152Z,7.23
2023-03-27T21:29:15.484Z,10.90
2023-03-27T21:31:43.568Z,7.80
2023-03-27T21:34:11.336Z,5.47
2023-03-27T21:36:40.503Z,6.43
2023-03-27T21:39:09.635Z,4.23
2023-03-27T21:41:37.465Z,7.20
2023-03-27T21:44:05.928Z,6.10
2023-03-27T21:46:35.483Z,10.40
2023-03-27T21:49:03.719Z,5.37
2023-03-27T21:51:31.741Z,5.07
2023-03-27T21:53:59.719Z,4.37
2023-03-27T21:56:27.424Z,4.50
2023-03-27T21:58:57.720Z,5.50
2023-03-27T22:01:26.005Z,2.90
2023-03-27T22:04:01.852Z,6.50
2023-03-27T22:06:29.995Z,4.20
2023-03-27T22:08:57.841Z,3.23
2023-03-27T22:11:25.746Z,2.67
2023-03-27T22:13:53.862Z,4.20
2023-03-27T22:16:21.897Z,4.20
2023-03-27T22:18:51.362Z,6.60
2023-03-27T22:21:23.383Z,6.17
2023-03-27T22:23:52.555Z,4.07
2023-03-27T22:26:21.677Z,3.77
2023-03-27T22:28:49.901Z,5.87
2023-03-27T22:31:18.256Z,4.33
2023-03-27T22:33:46.761Z,4.97
2023-03-27T22:36:15.787Z,7.00
2023-03-27T22:38:45.092Z,4.57
2023-03-27T22:41:15.446Z,6.50
2023-03-27T22:43:43.095Z,4.63
2023-03-27T22:46:12.880Z,4.03
2023-03-27T22:48:41.461Z,5.47
2023-03-27T22:51:12.079Z,3.60
2023-03-27T22:53:40.293Z,4.53
2023-03-27T22:56:11.240Z,7.63
2023-03-27T22:58:39.224Z,5.93
2023-03-27T23:01:07.950Z,7.83
2023-03-27T23:03:36.098Z,6.70
2023-03-27T23:06:04.490Z,7.83
2023-03-27T23:08:32.472Z,6.23
2023-03-27T23:11:01.977Z,5.07
2023-03-27T23:13:34.233Z,4.90
2023-03-27T23:16:02.321Z,7.90
2023-03-27T23:18:30.149Z,6.00
2023-03-27T23:21:01.971Z,7.37
2023-03-27T23:23:31.431Z,5.73
2023-03-27T23:25:59.526Z,6.23
2023-03-27T23:28:31.002Z,5.23
2023-03-27T23:31:01.969Z,9.43
2023-03-27T23:33:33.924Z,8.70
2023-03-27T23:36:04.391Z,5.60
2023-03-27T23:38:32.995Z,6.27
2023-03-27T23:41:03.533Z,5.53
2023-03-27T23:43:32.591Z,5.57
2023-03-27T23:46:02.084Z,4.53
2023-03-27T23:48:30.604Z,4.50
2023-03-27T23:50:59.458Z,11.53
2023-03-27T23:53:29.707Z,5.03
2023-03-27T23:55:59.761Z,9.30
2023-03-27T23:58:32.391Z,5.40
